Flying Cat 5 — SY5393 — position and weather

sailwx.info

Track history (hours):
 
Tides and Currents Weather Stations Pressure Air Temp Water Temp Dewpoint Dewpoint Depression Visibility Wind Speed Wind Dir Waves Ship Positions

Flying Cat 5

Last reported at 2017-Oct-17 18:30 UTC. Time now 2017-Oct-17 18:55 UTC.
Position N 37°57' E 023°39'.

Length 40 m; draft 1.5 m.

Type: High speed craft. MMSI: 237836900.

Date/timePositionNaut miles runAvg speedWind from/ knotsBaromVisibWave heightAir tempDewpointWater temp
2017-Oct-17 18:30N 37°57' E 023°39'0 0.0
2017-Oct-17 18:00N 37°57' E 023°39'611.3
2017-Oct-17 17:31N 37°51' E 023°36'1223.9
2017-Oct-17 17:01N 37°40' E 023°31'1120.3
2017-Oct-17 16:29N 37°30' E 023°27'9 1.2
2017-Oct-17 08:39N 37°22' E 023°21'423.9
2017-Oct-17 08:30N 37°22' E 023°25'9 7.7
2017-Oct-17 07:23N 37°30' E 023°27'820.0
2017-Oct-17 07:00N 37°37' E 023°30'1123.3
2017-Oct-17 06:31N 37°48' E 023°35'918.0
2017-Oct-17 06:00N 37°57' E 023°39'0 0.0
2017-Oct-17 05:30N 37°57' E 023°39'0 0.0
2017-Oct-17 05:00N 37°57' E 023°39'0 0.0
2017-Oct-16 17:48N 37°57' E 023°39'2 7.5
2017-Oct-16 17:31N 37°55' E 023°37'1223.7
2017-Oct-16 17:00N 37°43' E 023°33'1324.1
2017-Oct-16 16:29N 37°32' E 023°26'511.3
2017-Oct-16 16:00N 37°29' E 023°31'812.4
2017-Oct-16 15:20N 37°21' E 023°27'5 0.8
2017-Oct-16 08:39N 37°22' E 023°21'424.7
2017-Oct-16 08:30N 37°22' E 023°25'911.8
2017-Oct-16 07:47N 37°29' E 023°32'410.7
2017-Oct-16 07:25N 37°30' E 023°27'717.5
2017-Oct-16 07:01N 37°37' E 023°28'1223.6
2017-Oct-16 06:30N 37°48' E 023°35'919.0
2017-Oct-16 06:00N 37°57' E 023°39'0 0.0
2017-Oct-16 05:31N 37°57' E 023°39'0 0.0
2017-Oct-16 05:00N 37°57' E 023°39'0 0.0
2017-Oct-15 18:08N 37°57' E 023°39'1 7.2
2017-Oct-15 18:01N 37°56' E 023°38'1020.8
2017-Oct-15 17:31N 37°46' E 023°35'1121.4
2017-Oct-15 17:01N 37°37' E 023°28'712.6
2017-Oct-15 16:26N 37°30' E 023°27'910.5
2017-Oct-15 15:36N 37°21' E 023°28'1 4.2
2017-Oct-15 15:23N 37°21' E 023°27'5 0.7
2017-Oct-15 08:33N 37°22' E 023°21'125.0
2017-Oct-15 08:30N 37°22' E 023°22'1113.3
2017-Oct-15 07:42N 37°29' E 023°32'418.8
2017-Oct-15 07:30N 37°30' E 023°27'612.2
2017-Oct-15 07:01N 37°36' E 023°28'1224.9
2017-Oct-15 06:31N 37°47' E 023°35'1019.9
2017-Oct-15 06:00N 37°57' E 023°39'0 0.0
2017-Oct-15 05:30N 37°57' E 023°39'0 0.0
2017-Oct-14 18:18N 37°57' E 023°39'0 0.0
2017-Oct-14 18:00N 37°57' E 023°39'611.2
2017-Oct-14 17:31N 37°52' E 023°34'1121.3
2017-Oct-14 17:01N 37°42' E 023°33'1122.4
2017-Oct-14 16:30N 37°32' E 023°26'611.2
2017-Oct-14 16:00N 37°29' E 023°32'813.2
2017-Oct-14 15:22N 37°21' E 023°28'4 0.7
2017-Oct-14 08:47N 37°22' E 023°23'510.3
2017-Oct-14 08:20N 37°22' E 023°28'813.6
2017-Oct-14 07:46N 37°30' E 023°29'1 5.2
2017-Oct-14 07:30N 37°30' E 023°27'917.2
2017-Oct-14 07:01N 37°38' E 023°30'1122.1
2017-Oct-14 06:30N 37°48' E 023°35'917.3
2017-Oct-14 06:00N 37°57' E 023°39'0 0.0
2017-Oct-14 05:30N 37°57' E 023°39'0 0.0
2017-Oct-14 05:01N 37°57' E 023°39'0 0.0
2017-Oct-13 18:00N 37°57' E 023°39'5 9.7
2017-Oct-13 17:31N 37°52' E 023°36'1121.8
2017-Oct-13 17:01N 37°42' E 023°33'1222.3
2017-Oct-13 16:30N 37°32' E 023°25'911.7
2017-Oct-13 15:45N 37°24' E 023°30'4 9.6
2017-Oct-13 15:22N 37°21' E 023°27'5 0.8
2017-Oct-13 08:40N 37°22' E 023°21'424.6
2017-Oct-13 08:31N 37°22' E 023°26'811.3
2017-Oct-13 07:49N 37°28' E 023°31'411.1
2017-Oct-13 07:28N 37°30' E 023°27'817.3
2017-Oct-13 07:00N 37°38' E 023°30'1122.8
2017-Oct-13 06:31N 37°48' E 023°35'917.9
2017-Oct-13 06:00N 37°57' E 023°39'0 0.0
2017-Oct-13 05:30N 37°57' E 023°39'0 0.0
2017-Oct-12 18:15N 37°57' E 023°39'0 0.0
2017-Oct-12 18:00N 37°57' E 023°39'3 6.9
2017-Oct-12 17:31N 37°54' E 023°37'1122.3
2017-Oct-12 17:00N 37°43' E 023°33'1222.7
2017-Oct-12 16:29N 37°32' E 023°26'510.7
2017-Oct-12 16:00N 37°29' E 023°30'811.4
2017-Oct-12 15:19N 37°21' E 023°26'3 0.4
2017-Oct-12 08:31N 37°22' E 023°22'024.8
2017-Oct-12 08:30N 37°22' E 023°23'912.1
2017-Oct-12 07:46N 37°28' E 023°31'411.8
2017-Oct-12 07:27N 37°30' E 023°27'817.1
2017-Oct-12 06:57N 37°38' E 023°30'1023.6
2017-Oct-12 06:31N 37°48' E 023°35'918.7
2017-Oct-12 06:00N 37°57' E 023°39'0 0.0
2017-Oct-11 18:00N 37°57' E 023°39'713.9
2017-Oct-11 17:31N 37°50' E 023°36'817.0
2017-Oct-11 17:01N 37°42' E 023°32'15 0.8
2017-Oct-10 20:35N 37°57' E 023°39'0 0.0
2017-Oct-10 20:31N 37°57' E 023°39'0 0.0
2017-Oct-10 20:00N 37°57' E 023°39'0 0.0
2017-Oct-10 19:31N 37°57' E 023°39'0 0.0
2017-Oct-10 19:01N 37°57' E 023°39'0 0.0
2017-Oct-10 18:30N 37°57' E 023°39'0 0.0
2017-Oct-10 18:00N 37°57' E 023°39'2 3.4
2017-Oct-10 17:30N 37°56' E 023°37'1223.6
2017-Oct-10 17:01N 37°44' E 023°33'1223.8
2017-Oct-10 16:30N 37°33' E 023°27'5 9.8
2017-Oct-10 16:00N 37°29' E 023°30'812.2
2017-Oct-10 15:19N 37°21' E 023°26'3 0.5
2017-Oct-10 08:34N 37°22' E 023°22'125.6
2017-Oct-10 08:31N 37°22' E 023°24'811.3
2017-Oct-10 07:47N 37°29' E 023°30'3 9.5
2017-Oct-10 07:27N 37°30' E 023°27'818.4
2017-Oct-10 07:00N 37°38' E 023°30'1223.4
2017-Oct-10 06:31N 37°49' E 023°35'816.6
2017-Oct-10 06:00N 37°57' E 023°39'713.1
2017-Oct-10 05:31N 37°52' E 023°33'917.1
2017-Oct-10 04:58N 37°45' E 023°26'611.9
2017-Oct-10 04:31N 37°49' E 023°30'1020.4
2017-Oct-10 04:00N 37°57' E 023°39'0 0.0
2017-Oct-10 03:04N 37°57' E 023°39'0 0.4
2017-Oct-10 03:00N 37°57' E 023°39'0 0.0
2017-Oct-09 18:15N 37°57' E 023°39'0 0.0
2017-Oct-09 18:00N 37°57' E 023°39'4 7.3
2017-Oct-09 17:31N 37°54' E 023°36'1122.7
2017-Oct-09 17:01N 37°43' E 023°33'1223.0
2017-Oct-09 16:30N 37°32' E 023°26'5 9.8
2017-Oct-09 16:00N 37°29' E 023°30'811.7
2017-Oct-09 15:20N 37°21' E 023°27'4 0.6
2017-Oct-09 08:37N 37°22' E 023°22'324.9
2017-Oct-09 08:30N 37°22' E 023°26'811.6
2017-Oct-09 07:48N 37°29' E 023°31'3 9.3
2017-Oct-09 07:28N 37°30' E 023°27'817.3
2017-Oct-09 07:00N 37°37' E 023°30'1122.5
2017-Oct-09 06:30N 37°48' E 023°36'918.3
2017-Oct-09 06:01N 37°57' E 023°39'0 0.1
2017-Oct-09 05:30N 37°57' E 023°39'0 0.0
2017-Oct-09 05:00N 37°57' E 023°39'0 0.0
2017-Oct-08 19:20N 37°57' E 023°39'1 3.4
2017-Oct-08 19:01N 37°56' E 023°37'1121.4
2017-Oct-08 18:30N 37°46' E 023°35'1122.1
2017-Oct-08 18:00N 37°36' E 023°29'611.1
2017-Oct-08 17:28N 37°30' E 023°28'814.3
2017-Oct-08 16:55N 37°22' E 023°29'6 4.2
2017-Oct-08 15:22N 37°22' E 023°21'1322.3
2017-Oct-08 14:46N 37°31' E 023°33'625.2
2017-Oct-08 14:31N 37°37' E 023°34'1325.5
2017-Oct-08 14:01N 37°50' E 023°36'714.1
2017-Oct-08 13:31N 37°57' E 023°39'4 8.9
2017-Oct-08 13:00N 37°53' E 023°36'1121.4
2017-Oct-08 12:30N 37°42' E 023°33'1121.7
2017-Oct-08 11:59N 37°32' E 023°26'510.0
2017-Oct-08 11:29N 37°29' E 023°31'910.0
2017-Oct-08 10:37N 37°21' E 023°26'224.3
2017-Oct-08 10:31N 37°20' E 023°23'2 1.0
2017-Oct-08 08:27N 37°22' E 023°22'1012.8
2017-Oct-08 07:41N 37°29' E 023°31'319.7
2017-Oct-08 07:30N 37°30' E 023°27'612.7
2017-Oct-08 07:00N 37°36' E 023°28'1224.7
2017-Oct-08 06:31N 37°47' E 023°35'1020.1
2017-Oct-08 06:01N 37°57' E 023°39'0 0.0
2017-Oct-08 05:31N 37°57' E 023°39'  
Track history (hours):
 
Tides and Currents Weather Stations Pressure Air Temp Water Temp Dewpoint Dewpoint Depression Visibility Wind Speed Wind Dir Waves Ship Positions

Flying Cat 5

Last reported at 2017-Oct-17 18:30 UTC. Time now 2017-Oct-17 18:55 UTC.
Position N 37°57' E 023°39'.

Length 40 m; draft 1.5 m.

Type: High speed craft. MMSI: 237836900.

Date/timePositionNaut miles runAvg speedWind from/ knotsBaromVisibWave heightAir tempDewpointWater temp
2017-Oct-17 18:30N 37°57' E 023°39'0 0.0
2017-Oct-17 18:00N 37°57' E 023°39'611.3
2017-Oct-17 17:31N 37°51' E 023°36'1223.9
2017-Oct-17 17:01N 37°40' E 023°31'1120.3
2017-Oct-17 16:29N 37°30' E 023°27'9 1.2
2017-Oct-17 08:39N 37°22' E 023°21'423.9
2017-Oct-17 08:30N 37°22' E 023°25'9 7.7
2017-Oct-17 07:23N 37°30' E 023°27'820.0
2017-Oct-17 07:00N 37°37' E 023°30'1123.3
2017-Oct-17 06:31N 37°48' E 023°35'918.0
2017-Oct-17 06:00N 37°57' E 023°39'0 0.0
2017-Oct-17 05:30N 37°57' E 023°39'0 0.0
2017-Oct-17 05:00N 37°57' E 023°39'0 0.0
2017-Oct-16 17:48N 37°57' E 023°39'2 7.5
2017-Oct-16 17:31N 37°55' E 023°37'1223.7
2017-Oct-16 17:00N 37°43' E 023°33'1324.1
2017-Oct-16 16:29N 37°32' E 023°26'511.3
2017-Oct-16 16:00N 37°29' E 023°31'812.4
2017-Oct-16 15:20N 37°21' E 023°27'5 0.8
2017-Oct-16 08:39N 37°22' E 023°21'424.7
2017-Oct-16 08:30N 37°22' E 023°25'911.8
2017-Oct-16 07:47N 37°29' E 023°32'410.7
2017-Oct-16 07:25N 37°30' E 023°27'717.5
2017-Oct-16 07:01N 37°37' E 023°28'1223.6
2017-Oct-16 06:30N 37°48' E 023°35'919.0
2017-Oct-16 06:00N 37°57' E 023°39'0 0.0
2017-Oct-16 05:31N 37°57' E 023°39'0 0.0
2017-Oct-16 05:00N 37°57' E 023°39'0 0.0
2017-Oct-15 18:08N 37°57' E 023°39'1 7.2
2017-Oct-15 18:01N 37°56' E 023°38'1020.8
2017-Oct-15 17:31N 37°46' E 023°35'1121.4
2017-Oct-15 17:01N 37°37' E 023°28'712.6
2017-Oct-15 16:26N 37°30' E 023°27'910.5
2017-Oct-15 15:36N 37°21' E 023°28'1 4.2
2017-Oct-15 15:23N 37°21' E 023°27'5 0.7
2017-Oct-15 08:33N 37°22' E 023°21'125.0
2017-Oct-15 08:30N 37°22' E 023°22'1113.3
2017-Oct-15 07:42N 37°29' E 023°32'418.8
2017-Oct-15 07:30N 37°30' E 023°27'612.2
2017-Oct-15 07:01N 37°36' E 023°28'1224.9
2017-Oct-15 06:31N 37°47' E 023°35'1019.9
2017-Oct-15 06:00N 37°57' E 023°39'0 0.0
2017-Oct-15 05:30N 37°57' E 023°39'0 0.0
2017-Oct-14 18:18N 37°57' E 023°39'0 0.0
2017-Oct-14 18:00N 37°57' E 023°39'611.2
2017-Oct-14 17:31N 37°52' E 023°34'1121.3
2017-Oct-14 17:01N 37°42' E 023°33'1122.4
2017-Oct-14 16:30N 37°32' E 023°26'611.2
2017-Oct-14 16:00N 37°29' E 023°32'813.2
2017-Oct-14 15:22N 37°21' E 023°28'4 0.7
2017-Oct-14 08:47N 37°22' E 023°23'510.3
2017-Oct-14 08:20N 37°22' E 023°28'813.6
2017-Oct-14 07:46N 37°30' E 023°29'1 5.2
2017-Oct-14 07:30N 37°30' E 023°27'917.2
2017-Oct-14 07:01N 37°38' E 023°30'1122.1
2017-Oct-14 06:30N 37°48' E 023°35'917.3
2017-Oct-14 06:00N 37°57' E 023°39'0 0.0
2017-Oct-14 05:30N 37°57' E 023°39'0 0.0
2017-Oct-14 05:01N 37°57' E 023°39'0 0.0
2017-Oct-13 18:00N 37°57' E 023°39'5 9.7
2017-Oct-13 17:31N 37°52' E 023°36'1121.8
2017-Oct-13 17:01N 37°42' E 023°33'1222.3
2017-Oct-13 16:30N 37°32' E 023°25'911.7
2017-Oct-13 15:45N 37°24' E 023°30'4 9.6
2017-Oct-13 15:22N 37°21' E 023°27'5 0.8
2017-Oct-13 08:40N 37°22' E 023°21'424.6
2017-Oct-13 08:31N 37°22' E 023°26'811.3
2017-Oct-13 07:49N 37°28' E 023°31'411.1
2017-Oct-13 07:28N 37°30' E 023°27'817.3
2017-Oct-13 07:00N 37°38' E 023°30'1122.8
2017-Oct-13 06:31N 37°48' E 023°35'917.9
2017-Oct-13 06:00N 37°57' E 023°39'0 0.0
2017-Oct-13 05:30N 37°57' E 023°39'0 0.0
2017-Oct-12 18:15N 37°57' E 023°39'0 0.0
2017-Oct-12 18:00N 37°57' E 023°39'3 6.9
2017-Oct-12 17:31N 37°54' E 023°37'1122.3
2017-Oct-12 17:00N 37°43' E 023°33'1222.7
2017-Oct-12 16:29N 37°32' E 023°26'510.7
2017-Oct-12 16:00N 37°29' E 023°30'811.4
2017-Oct-12 15:19N 37°21' E 023°26'3 0.4
2017-Oct-12 08:31N 37°22' E 023°22'024.8
2017-Oct-12 08:30N 37°22' E 023°23'912.1
2017-Oct-12 07:46N 37°28' E 023°31'411.8
2017-Oct-12 07:27N 37°30' E 023°27'817.1
2017-Oct-12 06:57N 37°38' E 023°30'1023.6
2017-Oct-12 06:31N 37°48' E 023°35'918.7
2017-Oct-12 06:00N 37°57' E 023°39'0 0.0
2017-Oct-11 18:00N 37°57' E 023°39'713.9
2017-Oct-11 17:31N 37°50' E 023°36'817.0
2017-Oct-11 17:01N 37°42' E 023°32'15 0.8
2017-Oct-10 20:35N 37°57' E 023°39'0 0.0
2017-Oct-10 20:31N 37°57' E 023°39'0 0.0
2017-Oct-10 20:00N 37°57' E 023°39'0 0.0
2017-Oct-10 19:31N 37°57' E 023°39'0 0.0
2017-Oct-10 19:01N 37°57' E 023°39'0 0.0
2017-Oct-10 18:30N 37°57' E 023°39'0 0.0
2017-Oct-10 18:00N 37°57' E 023°39'2 3.4
2017-Oct-10 17:30N 37°56' E 023°37'1223.6
2017-Oct-10 17:01N 37°44' E 023°33'1223.8
2017-Oct-10 16:30N 37°33' E 023°27'5 9.8
2017-Oct-10 16:00N 37°29' E 023°30'812.2
2017-Oct-10 15:19N 37°21' E 023°26'3 0.5
2017-Oct-10 08:34N 37°22' E 023°22'125.6
2017-Oct-10 08:31N 37°22' E 023°24'811.3
2017-Oct-10 07:47N 37°29' E 023°30'3 9.5
2017-Oct-10 07:27N 37°30' E 023°27'818.4
2017-Oct-10 07:00N 37°38' E 023°30'1223.4
2017-Oct-10 06:31N 37°49' E 023°35'816.6
2017-Oct-10 06:00N 37°57' E 023°39'713.1
2017-Oct-10 05:31N 37°52' E 023°33'917.1
2017-Oct-10 04:58N 37°45' E 023°26'611.9
2017-Oct-10 04:31N 37°49' E 023°30'1020.4
2017-Oct-10 04:00N 37°57' E 023°39'0 0.0
2017-Oct-10 03:04N 37°57' E 023°39'0 0.4
2017-Oct-10 03:00N 37°57' E 023°39'0 0.0
2017-Oct-09 18:15N 37°57' E 023°39'0 0.0
2017-Oct-09 18:00N 37°57' E 023°39'4 7.3
2017-Oct-09 17:31N 37°54' E 023°36'1122.7
2017-Oct-09 17:01N 37°43' E 023°33'1223.0
2017-Oct-09 16:30N 37°32' E 023°26'5 9.8
2017-Oct-09 16:00N 37°29' E 023°30'811.7
2017-Oct-09 15:20N 37°21' E 023°27'4 0.6
2017-Oct-09 08:37N 37°22' E 023°22'324.9
2017-Oct-09 08:30N 37°22' E 023°26'811.6
2017-Oct-09 07:48N 37°29' E 023°31'3 9.3
2017-Oct-09 07:28N 37°30' E 023°27'817.3
2017-Oct-09 07:00N 37°37' E 023°30'1122.5
2017-Oct-09 06:30N 37°48' E 023°36'918.3
2017-Oct-09 06:01N 37°57' E 023°39'0 0.1
2017-Oct-09 05:30N 37°57' E 023°39'0 0.0
2017-Oct-09 05:00N 37°57' E 023°39'0 0.0
2017-Oct-08 19:20N 37°57' E 023°39'1 3.4
2017-Oct-08 19:01N 37°56' E 023°37'1121.4
2017-Oct-08 18:30N 37°46' E 023°35'1122.1
2017-Oct-08 18:00N 37°36' E 023°29'611.1
2017-Oct-08 17:28N 37°30' E 023°28'814.3
2017-Oct-08 16:55N 37°22' E 023°29'6 4.2
2017-Oct-08 15:22N 37°22' E 023°21'1322.3
2017-Oct-08 14:46N 37°31' E 023°33'625.2
2017-Oct-08 14:31N 37°37' E 023°34'1325.5
2017-Oct-08 14:01N 37°50' E 023°36'714.1
2017-Oct-08 13:31N 37°57' E 023°39'4 8.9
2017-Oct-08 13:00N 37°53' E 023°36'1121.4
2017-Oct-08 12:30N 37°42' E 023°33'1121.7
2017-Oct-08 11:59N 37°32' E 023°26'510.0
2017-Oct-08 11:29N 37°29' E 023°31'910.0
2017-Oct-08 10:37N 37°21' E 023°26'224.3
2017-Oct-08 10:31N 37°20' E 023°23'2 1.0
2017-Oct-08 08:27N 37°22' E 023°22'1012.8
2017-Oct-08 07:41N 37°29' E 023°31'319.7
2017-Oct-08 07:30N 37°30' E 023°27'612.7
2017-Oct-08 07:00N 37°36' E 023°28'1224.7
2017-Oct-08 06:31N 37°47' E 023°35'1020.1
2017-Oct-08 06:01N 37°57' E 023°39'0 0.0
2017-Oct-08 05:31N 37°57' E 023°39'  

Dump ship's entire track history